createdAt,value
2018-05-15T00:01:27.675Z,13.67
2018-05-15T00:03:55.685Z,17.40
2018-05-15T00:06:24.923Z,14.33
2018-05-15T00:08:53.243Z,16.33
2018-05-15T00:11:20.952Z,18.03
2018-05-15T00:13:49.112Z,13.50
2018-05-15T00:16:17.240Z,13.90
2018-05-15T00:18:45.361Z,16.27
2018-05-15T00:21:13.653Z,19.37
2018-05-15T00:23:41.977Z,13.70
2018-05-15T00:26:10.392Z,18.73
2018-05-15T00:28:38.287Z,14.80
2018-05-15T00:31:06.487Z,16.97
2018-05-15T00:33:34.677Z,24.10
2018-05-15T00:36:02.726Z,20.40
2018-05-15T00:38:31.298Z,16.30
2018-05-15T00:41:00.074Z,12.07
2018-05-15T00:43:27.853Z,14.47
2018-05-15T00:45:56.218Z,12.90
2018-05-15T00:48:24.309Z,13.93
2018-05-15T00:50:52.608Z,13.00
2018-05-15T00:53:20.939Z,16.27
2018-05-15T00:55:49.195Z,19.00
2018-05-15T00:58:16.998Z,21.57
2018-05-15T01:00:45.031Z,23.77
2018-05-15T01:03:13.595Z,12.63
2018-05-15T01:05:42.331Z,17.80
2018-05-15T01:08:10.333Z,17.50
2018-05-15T01:10:38.913Z,11.80
2018-05-15T01:13:07.666Z,16.60
2018-05-15T01:15:37.153Z,15.60
2018-05-15T01:18:06.322Z,15.80
2018-05-15T01:20:34.264Z,19.17
2018-05-15T01:23:02.911Z,15.07
2018-05-15T01:25:31.865Z,21.40
2018-05-15T01:27:59.661Z,18.57
2018-05-15T01:30:27.856Z,17.13
2018-05-15T01:32:56.701Z,19.60
2018-05-15T01:35:25.722Z,20.17
2018-05-15T01:37:53.681Z,27.83
2018-05-15T01:40:21.933Z,18.97
2018-05-15T01:42:50.114Z,23.00
2018-05-15T01:45:19.297Z,21.30
2018-05-15T01:47:47.580Z,17.50
2018-05-15T01:50:15.754Z,23.40
2018-05-15T01:52:43.841Z,14.47
2018-05-15T01:55:11.772Z,24.23
2018-05-15T01:57:41.265Z,18.10
2018-05-15T02:00:10.641Z,15.20
2018-05-15T02:02:38.647Z,20.50
2018-05-15T02:05:07.447Z,22.83
2018-05-15T02:07:35.847Z,20.90
2018-05-15T02:10:03.924Z,21.17
2018-05-15T02:12:32.889Z,15.73
2018-05-15T02:15:00.965Z,18.17
2018-05-15T02:17:29.840Z,19.13
2018-05-15T02:20:01.555Z,16.13
2018-05-15T02:22:29.675Z,13.43
2018-05-15T02:24:58.651Z,15.37
2018-05-15T02:27:28.363Z,21.00
2018-05-15T02:29:56.869Z,20.83
2018-05-15T02:32:25.216Z,15.23
2018-05-15T02:34:53.356Z,20.83
2018-05-15T02:37:21.532Z,20.63
2018-05-15T02:39:49.591Z,20.73
2018-05-15T02:42:18.075Z,14.23
2018-05-15T02:44:46.713Z,15.30
2018-05-15T02:47:14.718Z,18.40
2018-05-15T02:49:43.250Z,16.53
2018-05-15T02:52:11.892Z,17.70
2018-05-15T02:54:40.231Z,19.20
2018-05-15T02:57:08.905Z,15.80
2018-05-15T02:59:37.346Z,16.70
2018-05-15T03:02:05.031Z,12.80
2018-05-15T03:04:33.776Z,15.90
2018-05-15T03:07:01.627Z,22.20
2018-05-15T03:09:30.283Z,21.20
2018-05-15T03:11:58.777Z,18.77
2018-05-15T03:14:26.807Z,17.53
2018-05-15T03:16:55.439Z,17.60
2018-05-15T03:19:26.353Z,23.90
2018-05-15T03:21:54.874Z,24.40
2018-05-15T03:24:23.127Z,19.30
2018-05-15T03:26:51.862Z,17.00
2018-05-15T03:29:21.127Z,17.73
2018-05-15T03:31:49.759Z,15.73
2018-05-15T03:34:17.562Z,18.33
2018-05-15T03:36:45.824Z,16.83
2018-05-15T03:39:13.960Z,21.70
2018-05-15T03:41:44.024Z,19.87
2018-05-15T03:44:13.274Z,22.40
2018-05-15T03:46:42.451Z,18.87
2018-05-15T03:49:11.546Z,22.80
2018-05-15T03:51:39.683Z,20.10
2018-05-15T03:54:08.666Z,19.50
2018-05-15T03:56:37.497Z,20.53
2018-05-15T03:59:06.188Z,24.40
2018-05-15T04:01:46.921Z,20.10
2018-05-15T04:04:26.899Z,26.80
2018-05-15T04:07:06.870Z,20.10
2018-05-15T04:09:34.868Z,15.57
2018-05-15T04:12:03.885Z,23.00
2018-05-15T04:14:31.872Z,19.70
2018-05-15T04:17:00.498Z,13.13
2018-05-15T04:19:29.352Z,24.70
2018-05-15T04:21:57.754Z,23.63
2018-05-15T04:24:25.574Z,23.40
2018-05-15T04:26:54.851Z,17.90
2018-05-15T04:29:24.091Z,18.10
2018-05-15T04:31:52.731Z,21.73
2018-05-15T04:34:21.998Z,18.00
2018-05-15T04:36:50.422Z,14.60
2018-05-15T04:39:18.383Z,17.40
2018-05-15T04:41:46.607Z,18.70
2018-05-15T04:44:15.003Z,17.63
2018-05-15T04:46:42.809Z,14.43
2018-05-15T04:49:11.369Z,20.73
2018-05-15T04:51:40.069Z,18.53
2018-05-15T04:54:08.145Z,21.37
2018-05-15T04:56:36.519Z,21.63
2018-05-15T04:59:04.364Z,18.90
2018-05-15T05:01:32.570Z,20.97
2018-05-15T05:04:01.821Z,20.07
2018-05-15T05:06:30.305Z,15.73
2018-05-15T05:08:58.581Z,18.37
2018-05-15T05:11:27.193Z,20.80
2018-05-15T05:13:55.645Z,15.47
2018-05-15T05:16:24.154Z,22.67
2018-05-15T05:18:52.295Z,23.60
2018-05-15T05:21:20.437Z,16.90
2018-05-15T05:23:48.722Z,15.93
2018-05-15T05:26:17.146Z,16.33
2018-05-15T05:28:45.419Z,21.10
2018-05-15T05:31:13.677Z,17.00
2018-05-15T05:33:42.085Z,24.60
2018-05-15T05:36:10.335Z,16.93
2018-05-15T05:38:38.528Z,24.13
2018-05-15T05:41:06.919Z,20.77
2018-05-15T05:43:35.181Z,17.20
2018-05-15T05:46:03.338Z,18.97
2018-05-15T05:48:33.594Z,19.63
2018-05-15T05:51:02.270Z,19.30
2018-05-15T05:53:30.917Z,23.80
2018-05-15T05:56:01.423Z,15.47
2018-05-15T05:58:29.735Z,16.30
2018-05-15T06:00:59.055Z,21.77
2018-05-15T06:03:27.685Z,17.43
2018-05-15T06:05:55.747Z,16.33
2018-05-15T06:08:24.196Z,15.90
2018-05-15T06:10:52.156Z,15.47
2018-05-15T06:13:20.883Z,16.63
2018-05-15T06:15:48.947Z,16.13
2018-05-15T06:18:17.101Z,15.77
2018-05-15T06:20:46.321Z,20.03
2018-05-15T06:23:14.539Z,14.97
2018-05-15T06:25:43.403Z,16.37
2018-05-15T06:28:11.940Z,13.73
2018-05-15T06:30:39.924Z,13.87
2018-05-15T06:33:08.508Z,14.37
2018-05-15T06:35:36.472Z,16.17
2018-05-15T06:38:05.011Z,12.63
2018-05-15T06:40:33.389Z,15.97
2018-05-15T06:43:01.753Z,14.75
2018-05-15T06:45:29.334Z,14.03
2018-05-15T06:47:57.890Z,12.97
2018-05-15T06:50:25.939Z,14.77
2018-05-15T06:55:21.800Z,12.70
2018-05-15T06:57:50.175Z,12.33
2018-05-15T07:00:19.104Z,13.83
2018-05-15T07:02:47.225Z,13.43
2018-05-15T07:05:15.878Z,10.30
2018-05-15T07:07:43.529Z,11.70
2018-05-15T07:10:12.776Z,10.90
2018-05-15T07:12:41.643Z,12.20
2018-05-15T07:15:10.314Z,14.67
2018-05-15T07:17:39.368Z,11.07
2018-05-15T07:20:09.074Z,34.73
2018-05-15T07:22:38.154Z,18.90
2018-05-15T07:25:07.099Z,14.03
2018-05-15T07:27:36.375Z,14.50
2018-05-15T07:30:05.332Z,14.33
2018-05-15T07:32:35.353Z,13.50
2018-05-15T07:35:03.672Z,13.47
2018-05-15T07:37:32.171Z,9.27
2018-05-15T07:40:01.620Z,13.80
2018-05-15T07:42:31.525Z,9.47
2018-05-15T07:45:01.121Z,11.57
2018-05-15T07:47:31.200Z,11.50
2018-05-15T07:49:59.943Z,18.00
2018-05-15T07:52:30.732Z,21.30
2018-05-15T07:55:00.986Z,12.77
2018-05-15T07:57:30.218Z,10.13
2018-05-15T07:59:58.368Z,11.20
2018-05-15T08:02:28.252Z,9.90
2018-05-15T08:04:58.852Z,9.27
2018-05-15T08:07:28.923Z,10.63
2018-05-15T08:09:57.387Z,9.50
2018-05-15T08:12:27.836Z,11.80
2018-05-15T08:14:56.661Z,29.63
2018-05-15T08:17:27.469Z,10.43
2018-05-15T08:19:58.205Z,9.23
2018-05-15T08:22:27.620Z,15.60
2018-05-15T08:24:56.868Z,7.17
2018-05-15T08:27:25.113Z,9.77
2018-05-15T08:29:54.278Z,9.73
2018-05-15T08:32:22.620Z,12.40
2018-05-15T08:34:50.586Z,10.70
2018-05-15T08:37:19.069Z,15.00
2018-05-15T08:39:47.526Z,9.17
2018-05-15T08:42:15.958Z,34.93
2018-05-15T08:44:45.324Z,50.23
2018-05-15T08:47:14.106Z,20.23
2018-05-15T08:49:42.529Z,15.80
2018-05-15T08:52:11.121Z,10.20
2018-05-15T08:54:39.885Z,10.50
2018-05-15T08:57:07.899Z,12.83
2018-05-15T08:59:37.446Z,18.55
2018-05-15T09:02:06.163Z,14.55
2018-05-15T09:04:34.465Z,13.40
2018-05-15T09:07:02.433Z,10.33
2018-05-15T09:09:30.405Z,7.25
2018-05-15T09:11:58.754Z,16.00
2018-05-15T09:14:27.040Z,8.47
2018-05-15T09:16:55.377Z,8.35
2018-05-15T09:19:23.494Z,11.00
2018-05-15T09:21:51.750Z,20.27
2018-05-15T09:24:19.909Z,10.60
2018-05-15T09:26:48.727Z,7.20
2018-05-15T09:29:17.489Z,8.80
2018-05-15T09:31:48.061Z,11.47
2018-05-15T09:34:16.584Z,9.67
2018-05-15T09:36:45.764Z,12.30
2018-05-15T09:39:15.150Z,10.30
2018-05-15T09:41:43.233Z,12.00
2018-05-15T09:44:11.403Z,15.30
2018-05-15T09:46:39.825Z,11.93
2018-05-15T09:49:09.165Z,7.93
2018-05-15T09:51:36.945Z,10.70
2018-05-15T09:54:05.642Z,9.63
2018-05-15T09:56:34.857Z,9.03
2018-05-15T09:59:02.880Z,13.33
2018-05-15T10:01:30.996Z,9.30
2018-05-15T10:03:59.523Z,13.50
2018-05-15T10:06:28.082Z,13.07
2018-05-15T10:08:56.701Z,10.13
2018-05-15T10:11:25.007Z,10.73
2018-05-15T10:13:53.121Z,13.03
2018-05-15T10:16:22.687Z,14.07
2018-05-15T10:18:50.688Z,13.33
2018-05-15T10:21:19.232Z,14.40
2018-05-15T10:23:47.765Z,11.90
2018-05-15T10:26:17.676Z,13.93
2018-05-15T10:28:46.420Z,14.73
2018-05-15T10:31:14.931Z,10.60
2018-05-15T10:33:43.715Z,10.87
2018-05-15T10:36:11.921Z,10.70
2018-05-15T10:38:40.165Z,9.00
2018-05-15T10:41:08.565Z,12.93
2018-05-15T10:43:38.314Z,30.60
2018-05-15T10:46:06.272Z,12.00
2018-05-15T10:48:35.451Z,22.47
2018-05-15T10:51:03.446Z,12.43
2018-05-15T10:53:32.240Z,12.20
2018-05-15T10:56:00.924Z,16.73
2018-05-15T10:58:30.027Z,27.03
2018-05-15T11:00:59.034Z,21.83
2018-05-15T11:03:28.179Z,37.37
2018-05-15T11:05:56.464Z,17.03
2018-05-15T11:08:24.840Z,15.90
2018-05-15T11:10:55.420Z,22.03
2018-05-15T11:13:24.154Z,14.10
2018-05-15T11:15:52.791Z,17.90
2018-05-15T11:18:32.963Z,14.83
2018-05-15T11:21:12.453Z,13.00
2018-05-15T11:24:07.005Z,14.43
2018-05-15T11:26:34.708Z,15.50
2018-05-15T11:29:02.787Z,13.27
2018-05-15T11:31:48.946Z,16.90
2018-05-15T11:34:23.936Z,28.57
2018-05-15T11:36:52.680Z,21.83
2018-05-15T11:39:24.081Z,22.73
2018-05-15T11:41:52.682Z,14.10
2018-05-15T11:44:22.369Z,11.70
2018-05-15T11:46:52.827Z,10.00
2018-05-15T11:49:26.703Z,20.07
2018-05-15T11:52:02.833Z,10.20
2018-05-15T11:54:33.497Z,13.23
2018-05-15T11:57:08.139Z,12.70
2018-05-15T11:59:42.287Z,15.80
2018-05-15T12:02:13.432Z,15.35
2018-05-15T12:04:42.918Z,21.20
2018-05-15T12:07:12.985Z,16.85
2018-05-15T12:09:44.037Z,14.50
2018-05-15T12:12:12.676Z,17.37
2018-05-15T12:14:41.655Z,17.07
2018-05-15T12:17:10.026Z,22.33
2018-05-15T12:19:38.898Z,24.10
2018-05-15T12:22:06.486Z,20.40
2018-05-15T12:24:34.936Z,20.60
2018-05-15T12:27:02.899Z,20.43
2018-05-15T12:29:31.364Z,19.90
2018-05-15T12:31:59.207Z,23.00
2018-05-15T12:34:26.982Z,16.40
2018-05-15T12:36:54.977Z,19.30
2018-05-15T12:39:23.685Z,15.93
2018-05-15T12:41:52.342Z,15.00
2018-05-15T12:44:20.163Z,21.93
2018-05-15T12:46:48.726Z,66.50
2018-05-15T12:49:16.356Z,45.10
2018-05-15T12:51:44.418Z,19.70
2018-05-15T12:54:12.434Z,18.53
2018-05-15T12:56:41.808Z,19.27
2018-05-15T12:59:12.264Z,21.30
2018-05-15T13:01:44.382Z,15.10
2018-05-15T13:04:12.521Z,17.77
2018-05-15T13:06:41.600Z,15.60
2018-05-15T13:09:09.948Z,16.60
2018-05-15T13:11:38.475Z,14.07
2018-05-15T13:14:07.846Z,20.30
2018-05-15T13:16:36.164Z,21.73
2018-05-15T13:19:05.420Z,18.17
2018-05-15T13:21:33.570Z,17.80
2018-05-15T13:24:02.321Z,21.20
2018-05-15T13:26:30.978Z,15.93
2018-05-15T13:28:59.585Z,15.70
2018-05-15T13:31:28.453Z,18.50
2018-05-15T13:33:56.618Z,15.87
2018-05-15T13:36:24.668Z,12.93
2018-05-15T13:38:53.243Z,17.07
2018-05-15T13:41:21.882Z,11.30
2018-05-15T13:43:50.137Z,11.17
2018-05-15T13:46:18.174Z,12.53
2018-05-15T13:48:46.964Z,13.70
2018-05-15T13:51:15.727Z,10.70
2018-05-15T13:53:44.374Z,12.03
2018-05-15T13:56:13.543Z,14.93
2018-05-15T13:58:42.133Z,83.37
2018-05-15T14:01:10.142Z,31.70
2018-05-15T14:03:38.438Z,19.80
2018-05-15T14:06:06.966Z,16.47
2018-05-15T14:08:35.976Z,20.53
2018-05-15T14:11:05.027Z,21.97
2018-05-15T14:13:33.825Z,20.70
2018-05-15T14:16:02.137Z,21.60
2018-05-15T14:18:30.727Z,28.60
2018-05-15T14:20:59.725Z,20.67
2018-05-15T14:23:28.518Z,17.90
2018-05-15T14:25:56.968Z,17.60
2018-05-15T14:28:25.755Z,18.30
2018-05-15T14:30:54.212Z,20.30
2018-05-15T14:33:23.765Z,16.27
2018-05-15T14:35:52.300Z,18.90
2018-05-15T14:38:21.458Z,22.50
2018-05-15T14:40:49.682Z,18.55
2018-05-15T14:43:27.097Z,22.60
2018-05-15T14:45:56.060Z,20.30
2018-05-15T14:48:24.692Z,19.23
2018-05-15T14:54:15.736Z,19.50
2018-05-15T14:57:14.075Z,28.10
2018-05-15T15:00:02.461Z,13.87
2018-05-15T15:02:52.575Z,18.43
2018-05-15T15:11:21.915Z,14.83
2018-05-15T15:23:07.565Z,12.40
2018-05-15T15:25:59.271Z,17.57
2018-05-15T15:40:17.038Z,11.93
2018-05-15T15:51:35.707Z,11.57
2018-05-15T15:54:22.075Z,15.03
2018-05-15T15:57:03.228Z,17.27
2018-05-15T16:02:38.169Z,11.33
2018-05-15T16:31:24.212Z,14.80
2018-05-15T16:36:59.443Z,12.27
2018-05-15T16:51:35.694Z,11.03
2018-05-15T16:54:23.779Z,11.07
2018-05-15T17:00:12.228Z,16.27
2018-05-15T17:03:01.378Z,15.70
2018-05-15T17:08:38.156Z,15.83
2018-05-15T17:11:20.080Z,16.93
2018-05-15T17:14:07.880Z,23.30
2018-05-15T17:41:11.076Z,17.97
2018-05-15T17:43:55.310Z,19.77
2018-05-15T17:46:37.254Z,15.40
2018-05-15T17:49:20.065Z,18.83
2018-05-15T17:57:53.160Z,21.13
2018-05-15T18:09:31.209Z,19.37
2018-05-15T18:12:16.100Z,28.00
2018-05-15T18:14:58.151Z,19.83
2018-05-15T18:17:41.305Z,18.47
2018-05-15T18:20:26.422Z,20.07
2018-05-15T18:23:07.878Z,18.97
2018-05-15T18:25:50.849Z,21.07
2018-05-15T18:28:35.399Z,20.17
2018-05-15T18:31:20.338Z,24.93
2018-05-15T18:37:06.485Z,23.57
2018-05-15T18:39:48.607Z,21.70
2018-05-15T18:42:36.201Z,24.70
2018-05-15T18:45:18.239Z,25.00
2018-05-15T18:51:07.894Z,21.17
2018-05-15T18:53:51.829Z,25.60
2018-05-15T18:59:46.464Z,25.60
2018-05-15T19:02:27.647Z,25.03
2018-05-15T19:07:55.414Z,21.60
2018-05-15T19:10:45.947Z,27.50
2018-05-15T19:13:29.693Z,21.43
2018-05-15T19:16:11.296Z,21.27
2018-05-15T19:18:52.693Z,15.23
2018-05-15T19:21:34.034Z,18.70
2018-05-15T19:24:16.029Z,17.47
2018-05-15T19:26:56.384Z,15.37
2018-05-15T19:29:29.503Z,15.37
2018-05-15T19:32:15.318Z,13.53
2018-05-15T19:35:05.140Z,16.33
2018-05-15T19:37:46.913Z,13.40
2018-05-15T19:40:26.484Z,11.80
2018-05-15T19:42:58.794Z,12.27
2018-05-15T19:45:42.093Z,16.30
2018-05-15T19:48:34.621Z,14.40
2018-05-15T19:51:17.922Z,13.27
2018-05-15T19:53:59.130Z,17.80
2018-05-15T19:56:46.476Z,12.57
2018-05-15T19:59:27.547Z,12.37
2018-05-15T20:05:00.660Z,18.33
2018-05-15T20:07:43.657Z,15.43
2018-05-15T20:16:01.172Z,15.10
2018-05-15T20:24:38.049Z,17.77
2018-05-15T20:33:14.589Z,16.60
2018-05-15T20:44:25.787Z,16.07
2018-05-15T20:50:01.487Z,17.70
2018-05-15T20:52:47.441Z,18.10
2018-05-15T20:55:33.578Z,22.63
2018-05-15T20:58:17.144Z,17.30
2018-05-15T21:03:37.199Z,29.37
2018-05-15T21:06:18.952Z,31.93
2018-05-15T21:11:42.104Z,32.03
2018-05-15T21:14:24.282Z,25.50
2018-05-15T21:17:17.695Z,22.13
2018-05-15T21:20:03.195Z,31.30
2018-05-15T21:22:46.631Z,29.93
2018-05-15T21:25:28.913Z,23.47
2018-05-15T21:28:12.234Z,24.97
2018-05-15T21:30:53.135Z,34.10
2018-05-15T21:38:59.265Z,37.33
2018-05-15T21:41:29.265Z,33.37
2018-05-15T21:44:02.149Z,37.30
2018-05-15T21:46:44.189Z,35.70
2018-05-15T21:49:25.470Z,41.83
2018-05-15T21:55:01.390Z,32.13
2018-05-15T21:57:45.454Z,29.40
2018-05-15T22:00:26.537Z,33.90
2018-05-15T22:03:10.445Z,38.00
2018-05-15T22:05:53.568Z,32.20
2018-05-15T22:08:35.943Z,32.37
2018-05-15T22:11:17.535Z,36.60
2018-05-15T22:14:06.308Z,37.23
2018-05-15T22:16:48.450Z,37.87
2018-05-15T22:19:30.820Z,32.90
2018-05-15T22:22:12.395Z,31.87
2018-05-15T22:24:57.637Z,39.00
2018-05-15T22:27:28.133Z,33.57
2018-05-15T22:30:10.251Z,36.63
2018-05-15T22:35:32.235Z,39.17
2018-05-15T22:38:13.238Z,36.73
2018-05-15T22:40:55.125Z,36.60
2018-05-15T22:43:36.282Z,34.93
2018-05-15T22:46:19.596Z,36.97
2018-05-15T22:49:01.326Z,31.40
2018-05-15T22:51:41.381Z,37.77
2018-05-15T22:54:24.319Z,31.40
2018-05-15T22:57:06.593Z,40.33
2018-05-15T22:59:48.608Z,33.80
2018-05-15T23:02:28.837Z,39.87
2018-05-15T23:05:11.050Z,48.27
2018-05-15T23:10:31.373Z,36.73
2018-05-15T23:18:36.337Z,34.00
2018-05-15T23:21:27.695Z,36.10
2018-05-15T23:24:09.209Z,31.30
2018-05-15T23:26:51.334Z,57.70
2018-05-15T23:29:32.681Z,39.30
2018-05-15T23:32:13.863Z,32.80
2018-05-15T23:34:53.557Z,35.10
2018-05-15T23:37:34.628Z,47.03
2018-05-15T23:40:13.877Z,40.47
2018-05-15T23:42:55.161Z,32.97
2018-05-15T23:45:35.809Z,34.43
2018-05-15T23:48:17.045Z,40.17
2018-05-15T23:50:57.046Z,38.00
2018-05-15T23:53:36.936Z,37.60
2018-05-15T23:56:18.386Z,40.10
2018-05-15T23:58:57.945Z,40.93
